createdAt,value
2018-06-04T00:02:16.163Z,8.60
2018-06-04T00:04:44.430Z,7.97
2018-06-04T00:07:12.609Z,7.27
2018-06-04T00:09:40.760Z,8.27
2018-06-04T00:12:08.953Z,6.30
2018-06-04T00:14:37.092Z,6.70
2018-06-04T00:17:05.376Z,5.57
2018-06-04T00:19:33.717Z,7.47
2018-06-04T00:22:02.115Z,8.27
2018-06-04T00:24:30.388Z,7.60
2018-06-04T00:26:58.556Z,7.40
2018-06-04T00:29:26.721Z,8.13
2018-06-04T00:31:54.896Z,8.17
2018-06-04T00:34:23.111Z,9.43
2018-06-04T00:36:51.299Z,7.03
2018-06-04T00:39:19.472Z,6.60
2018-06-04T00:41:47.639Z,10.17
2018-06-04T00:44:16.044Z,7.10
2018-06-04T00:46:44.387Z,6.00
2018-06-04T00:49:12.544Z,6.40
2018-06-04T00:51:40.720Z,6.43
2018-06-04T00:54:08.891Z,9.27
2018-06-04T00:56:37.073Z,9.20
2018-06-04T00:59:05.233Z,7.23
2018-06-04T01:01:33.311Z,8.33
2018-06-04T01:04:01.485Z,5.60
2018-06-04T01:06:29.645Z,9.57
2018-06-04T01:08:57.934Z,7.27
2018-06-04T01:11:26.100Z,8.57
2018-06-04T01:13:54.476Z,8.30
2018-06-04T01:16:22.689Z,6.63
2018-06-04T01:18:50.851Z,7.80
2018-06-04T01:21:19.086Z,6.57
2018-06-04T01:23:47.342Z,6.53
2018-06-04T01:26:15.736Z,8.53
2018-06-04T01:28:43.917Z,12.87
2018-06-04T01:31:12.190Z,11.77
2018-06-04T01:33:40.367Z,10.03
2018-06-04T01:36:08.881Z,10.03
2018-06-04T01:38:37.527Z,8.73
2018-06-04T01:41:05.728Z,8.87
2018-06-04T01:43:33.935Z,8.67
2018-06-04T01:46:02.176Z,7.27
2018-06-04T01:48:30.414Z,9.17
2018-06-04T01:50:58.696Z,8.20
2018-06-04T01:53:26.963Z,9.17
2018-06-04T01:55:55.120Z,7.40
2018-06-04T01:58:23.365Z,10.77
2018-06-04T02:00:51.892Z,9.53
2018-06-04T02:03:20.113Z,8.60
2018-06-04T02:05:48.461Z,8.43
2018-06-04T02:08:16.656Z,9.20
2018-06-04T02:10:44.921Z,7.50
2018-06-04T02:13:13.107Z,9.17
2018-06-04T02:15:41.260Z,7.23
2018-06-04T02:18:09.721Z,7.40
2018-06-04T02:20:38.109Z,9.80
2018-06-04T02:23:06.282Z,8.93
2018-06-04T02:25:34.677Z,7.37
2018-06-04T02:28:02.937Z,6.73
2018-06-04T02:30:31.240Z,6.60
2018-06-04T02:32:59.624Z,6.33
2018-06-04T02:35:27.872Z,7.17
2018-06-04T02:37:56.040Z,8.53
2018-06-04T02:40:24.210Z,9.03
2018-06-04T02:42:52.369Z,8.17
2018-06-04T02:45:20.885Z,11.93
2018-06-04T02:47:49.045Z,12.80
2018-06-04T02:50:17.205Z,10.73
2018-06-04T02:52:45.410Z,11.37
2018-06-04T02:55:13.582Z,12.57
2018-06-04T02:57:41.955Z,10.77
2018-06-04T03:00:10.395Z,8.93
2018-06-04T03:02:39.080Z,11.27
2018-06-04T03:05:07.259Z,9.17
2018-06-04T03:07:35.501Z,8.00
2018-06-04T03:10:03.670Z,6.53
2018-06-04T03:12:31.821Z,8.20
2018-06-04T03:15:00.179Z,7.80
2018-06-04T03:17:28.401Z,9.63
2018-06-04T03:19:56.595Z,7.73
2018-06-04T03:22:24.877Z,9.00
2018-06-04T03:24:53.041Z,7.43
2018-06-04T03:27:21.206Z,8.73
2018-06-04T03:29:49.459Z,6.37
2018-06-04T03:32:17.821Z,7.90
2018-06-04T03:34:46.599Z,7.20
2018-06-04T03:37:14.707Z,7.50
2018-06-04T03:39:43.020Z,6.83
2018-06-04T03:42:11.254Z,6.53
2018-06-04T03:44:39.800Z,7.63
2018-06-04T03:47:08.155Z,6.17
2018-06-04T03:49:36.386Z,6.27
2018-06-04T03:52:04.751Z,6.27
2018-06-04T03:54:32.990Z,8.33
2018-06-04T03:57:01.373Z,11.20
2018-06-04T03:59:29.598Z,12.33
2018-06-04T04:01:57.765Z,13.13
2018-06-04T04:04:26.019Z,9.47
2018-06-04T04:06:54.172Z,8.83
2018-06-04T04:09:22.378Z,7.00
2018-06-04T04:11:50.546Z,6.97
2018-06-04T04:14:18.996Z,5.57
2018-06-04T04:16:47.323Z,7.43
2018-06-04T04:19:15.528Z,9.30
2018-06-04T04:21:43.804Z,6.63
2018-06-04T04:24:12.305Z,7.63
2018-06-04T04:26:40.493Z,7.17
2018-06-04T04:29:08.665Z,10.23
2018-06-04T04:31:36.828Z,7.10
2018-06-04T04:34:05.096Z,7.43
2018-06-04T04:36:33.274Z,7.40
2018-06-04T04:39:01.757Z,6.57
2018-06-04T04:41:29.901Z,7.97
2018-06-04T04:43:58.077Z,7.10
2018-06-04T04:46:26.266Z,6.70
2018-06-04T04:48:54.722Z,5.47
2018-06-04T04:51:22.977Z,6.03
2018-06-04T04:53:51.214Z,7.13
2018-06-04T04:56:19.378Z,6.07
2018-06-04T04:58:47.594Z,6.97
2018-06-04T05:01:15.777Z,6.23
2018-06-04T05:03:43.966Z,6.13
2018-06-04T05:06:12.320Z,6.43
2018-06-04T05:08:40.907Z,8.47
2018-06-04T05:11:09.080Z,7.83
2018-06-04T05:13:37.373Z,7.97
2018-06-04T05:16:05.652Z,9.93
2018-06-04T05:18:34.750Z,11.10
2018-06-04T05:21:03.232Z,14.63
2018-06-04T05:23:31.488Z,22.40
2018-06-04T05:25:59.766Z,22.60
2018-06-04T05:28:28.413Z,15.80
2018-06-04T05:30:56.818Z,14.30
2018-06-04T05:33:25.030Z,11.93
2018-06-04T05:35:53.264Z,20.33
2018-06-04T05:38:21.441Z,33.33
2018-06-04T05:40:50.775Z,35.57
2018-06-04T05:43:19.204Z,31.30
2018-06-04T05:45:47.396Z,27.97
2018-06-04T05:48:15.570Z,27.10
2018-06-04T05:50:43.772Z,23.37
2018-06-04T05:53:12.013Z,21.37
2018-06-04T05:55:40.459Z,22.37
2018-06-04T05:58:08.669Z,19.67
2018-06-04T06:00:36.858Z,20.67
2018-06-04T06:03:05.057Z,16.63
2018-06-04T06:05:33.607Z,26.10
2018-06-04T06:08:01.921Z,24.07
2018-06-04T06:10:30.113Z,24.07
2018-06-04T06:12:58.185Z,21.17
2018-06-04T06:15:26.380Z,16.67
2018-06-04T06:17:54.800Z,19.10
2018-06-04T06:20:23.337Z,16.80
2018-06-04T06:22:51.529Z,18.03
2018-06-04T06:25:19.594Z,19.40
2018-06-04T06:27:47.925Z,22.93
2018-06-04T06:30:16.279Z,32.50
2018-06-04T06:32:44.469Z,29.63
2018-06-04T06:35:12.648Z,27.87
2018-06-04T06:37:40.903Z,30.00
2018-06-04T06:40:08.962Z,30.37
2018-06-04T06:42:37.304Z,25.83
2018-06-04T06:45:05.271Z,20.60
2018-06-04T06:47:33.368Z,20.50
2018-06-04T06:50:01.576Z,22.00
2018-06-04T06:52:29.747Z,27.47
2018-06-04T06:54:57.921Z,30.20
2018-06-04T06:57:26.109Z,30.67
2018-06-04T06:59:54.337Z,22.07
2018-06-04T07:02:22.521Z,22.10
2018-06-04T07:04:50.789Z,30.27
2018-06-04T07:07:19.224Z,35.67
2018-06-04T07:09:47.397Z,25.17
2018-06-04T07:12:15.725Z,24.63
2018-06-04T07:14:43.888Z,26.40
2018-06-04T07:17:12.218Z,23.70
2018-06-04T07:19:40.413Z,18.23
2018-06-04T07:22:08.591Z,23.87
2018-06-04T07:24:36.770Z,27.67
2018-06-04T07:27:05.032Z,26.63
2018-06-04T07:29:33.345Z,26.47
2018-06-04T07:32:01.617Z,21.63
2018-06-04T07:34:29.928Z,25.03
2018-06-04T07:36:58.175Z,26.50
2018-06-04T07:39:26.489Z,25.87
2018-06-04T07:41:56.765Z,23.90
2018-06-04T07:44:25.037Z,24.73
2018-06-04T07:46:53.263Z,25.90
2018-06-04T07:49:21.446Z,23.50
2018-06-04T07:51:50.078Z,22.00
2018-06-04T07:54:19.601Z,24.27
2018-06-04T07:56:47.785Z,22.80
2018-06-04T07:59:16.153Z,18.90
2018-06-04T08:01:45.433Z,19.97
2018-06-04T08:04:13.742Z,18.10
2018-06-04T08:06:42.060Z,20.67
2018-06-04T08:09:10.439Z,19.53
2018-06-04T08:11:38.694Z,20.40
2018-06-04T08:14:07.998Z,19.37
2018-06-04T08:16:37.254Z,18.00
2018-06-04T08:19:05.703Z,22.13
2018-06-04T08:21:34.453Z,23.43
2018-06-04T08:24:03.058Z,22.57
2018-06-04T08:26:31.384Z,20.80
2018-06-04T08:28:59.681Z,19.77
2018-06-04T08:31:28.473Z,20.77
2018-06-04T08:33:57.128Z,21.10
2018-06-04T08:36:25.298Z,19.10
2018-06-04T08:38:53.485Z,20.80
2018-06-04T08:41:21.718Z,15.77
2018-06-04T08:43:50.063Z,15.40
2018-06-04T08:46:18.241Z,18.87
2018-06-04T08:48:46.421Z,16.90
2018-06-04T08:51:15.085Z,16.53
2018-06-04T08:53:43.272Z,20.60
2018-06-04T08:56:11.617Z,16.77
2018-06-04T08:58:39.835Z,18.90
2018-06-04T09:01:08.057Z,18.70
2018-06-04T09:03:36.255Z,17.83
2018-06-04T09:06:04.448Z,18.87
2018-06-04T09:08:32.699Z,20.57
2018-06-04T09:11:01.170Z,17.47
2018-06-04T09:13:29.335Z,17.57
2018-06-04T09:15:57.603Z,22.27
2018-06-04T09:18:25.805Z,18.77
2018-06-04T09:20:54.121Z,21.10
2018-06-04T09:23:22.316Z,18.70
2018-06-04T09:25:50.505Z,17.37
2018-06-04T09:28:18.679Z,21.10
2018-06-04T09:30:46.849Z,16.87
2018-06-04T09:33:15.049Z,15.83
2018-06-04T09:35:43.331Z,18.00
2018-06-04T09:38:11.806Z,19.77
2018-06-04T09:40:40.016Z,17.33
2018-06-04T09:43:08.230Z,20.67
2018-06-04T09:45:36.428Z,16.40
2018-06-04T09:48:04.722Z,19.33
2018-06-04T09:50:32.981Z,21.87
2018-06-04T09:53:01.211Z,19.90
2018-06-04T09:55:29.396Z,18.30
2018-06-04T09:57:57.648Z,15.97
2018-06-04T10:00:31.411Z,18.70
2018-06-04T10:03:00.748Z,19.27
2018-06-04T10:05:30.045Z,19.73
2018-06-04T10:07:58.481Z,18.30
2018-06-04T10:10:26.665Z,19.30
2018-06-04T10:12:54.844Z,17.20
2018-06-04T10:15:23.169Z,17.30
2018-06-04T10:17:51.392Z,16.20
2018-06-04T10:20:19.738Z,16.77
2018-06-04T10:22:48.025Z,19.90
2018-06-04T10:25:16.368Z,20.63
2018-06-04T10:27:44.632Z,17.43
2018-06-04T10:30:12.813Z,17.93
2018-06-04T10:32:41.111Z,17.97
2018-06-04T10:35:10.250Z,17.37
2018-06-04T10:37:38.433Z,16.43
2018-06-04T10:40:06.612Z,15.37
2018-06-04T10:42:34.850Z,15.73
2018-06-04T10:45:03.100Z,15.07
2018-06-04T10:47:31.492Z,15.33
2018-06-04T10:49:59.805Z,16.10
2018-06-04T10:52:27.969Z,15.87
2018-06-04T10:54:56.180Z,16.27
2018-06-04T10:57:24.458Z,14.87
2018-06-04T10:59:52.669Z,16.20
2018-06-04T11:02:20.850Z,15.07
2018-06-04T11:04:49.040Z,14.93
2018-06-04T11:07:17.447Z,13.53
2018-06-04T11:09:45.803Z,14.80
2018-06-04T11:12:14.865Z,16.47
2018-06-04T11:14:43.070Z,14.30
2018-06-04T11:17:11.233Z,14.30
2018-06-04T11:19:39.492Z,10.93
2018-06-04T11:22:07.932Z,14.20
2018-06-04T11:24:36.255Z,14.87
2018-06-04T11:27:04.466Z,15.67
2018-06-04T11:29:32.654Z,12.33
2018-06-04T11:32:00.974Z,12.97
2018-06-04T11:34:29.148Z,16.43
2018-06-04T11:36:57.599Z,12.73
2018-06-04T11:39:25.848Z,15.97
2018-06-04T11:41:53.956Z,14.73
2018-06-04T11:44:22.217Z,14.77
2018-06-04T11:46:50.448Z,12.30
2018-06-04T11:49:18.729Z,12.07
2018-06-04T11:51:47.371Z,14.30
2018-06-04T11:54:15.564Z,12.73
2018-06-04T11:56:43.851Z,12.23
2018-06-04T11:59:12.124Z,11.57
2018-06-04T12:01:40.535Z,11.70
2018-06-04T12:04:08.787Z,10.00
2018-06-04T12:06:37.064Z,11.30
2018-06-04T12:09:07.593Z,11.17
2018-06-04T12:11:36.133Z,9.87
2018-06-04T12:14:04.356Z,11.27
2018-06-04T12:16:32.631Z,11.13
2018-06-04T12:19:00.892Z,10.00
2018-06-04T12:21:29.180Z,9.23
2018-06-04T12:23:57.427Z,10.50
2018-06-04T12:26:25.638Z,12.57
2018-06-04T12:28:53.808Z,10.73
2018-06-04T12:31:21.980Z,11.43
2018-06-04T12:33:50.157Z,11.90
2018-06-04T12:36:18.328Z,11.17
2018-06-04T12:38:46.684Z,12.20
2018-06-04T12:41:15.064Z,12.93
2018-06-04T12:43:43.249Z,13.63
2018-06-04T12:46:11.508Z,12.87
2018-06-04T12:48:39.945Z,12.53
2018-06-04T12:51:08.228Z,11.53
2018-06-04T12:53:36.631Z,12.43
2018-06-04T12:58:34.989Z,12.17
2018-06-04T13:01:03.711Z,14.20
2018-06-04T13:03:31.931Z,12.57
2018-06-04T13:06:00.228Z,11.63
2018-06-04T13:08:28.418Z,10.00
2018-06-04T13:10:56.764Z,10.97
2018-06-04T13:13:24.967Z,10.33
2018-06-04T13:15:53.315Z,10.70
2018-06-04T13:18:21.717Z,10.40
2018-06-04T13:20:49.962Z,10.37
2018-06-04T13:23:18.132Z,9.60
2018-06-04T13:25:46.378Z,9.67
2018-06-04T13:28:14.399Z,8.80
2018-06-04T13:30:42.560Z,9.03
2018-06-04T13:33:10.728Z,10.80
2018-06-04T13:35:38.898Z,11.37
2018-06-04T13:38:06.842Z,12.23
2018-06-04T13:40:35.030Z,10.13
2018-06-04T13:43:03.740Z,8.70
2018-06-04T13:45:31.936Z,7.77
2018-06-04T13:48:00.112Z,8.43
2018-06-04T13:50:28.498Z,8.43
2018-06-04T13:52:57.008Z,9.93
2018-06-04T13:55:25.416Z,11.10
2018-06-04T13:57:53.371Z,8.90
2018-06-04T14:00:21.422Z,8.97
2018-06-04T14:02:49.687Z,10.73
2018-06-04T14:05:18.164Z,9.97
2018-06-04T14:07:46.343Z,8.77
2018-06-04T14:10:14.517Z,7.33
2018-06-04T14:12:42.797Z,8.80
2018-06-04T14:15:10.973Z,8.70
2018-06-04T14:17:39.156Z,11.00
2018-06-04T14:20:07.316Z,12.23
2018-06-04T14:22:35.498Z,13.80
2018-06-04T14:25:03.773Z,11.27
2018-06-04T14:27:31.968Z,11.40
2018-06-04T14:30:00.353Z,11.93
2018-06-04T14:32:28.648Z,10.73
2018-06-04T14:34:57.055Z,11.57
2018-06-04T14:37:25.336Z,11.87
2018-06-04T14:39:53.889Z,11.37
2018-06-04T14:42:22.128Z,9.93
2018-06-04T14:44:50.301Z,10.93
2018-06-04T14:47:18.468Z,16.60
2018-06-04T14:49:46.704Z,21.50
2018-06-04T14:52:14.955Z,23.13
2018-06-04T14:54:43.145Z,19.57
2018-06-04T14:57:11.780Z,21.27
2018-06-04T14:59:40.018Z,19.80
2018-06-04T15:02:08.195Z,19.20
2018-06-04T15:04:36.378Z,19.53
2018-06-04T15:07:04.592Z,17.27
2018-06-04T15:09:32.869Z,17.07
2018-06-04T15:12:01.042Z,20.57
2018-06-04T15:14:29.250Z,25.43
2018-06-04T15:16:57.577Z,25.93
2018-06-04T15:19:25.746Z,27.10
2018-06-04T15:21:53.914Z,26.20
2018-06-04T15:24:22.078Z,27.33
2018-06-04T15:26:50.407Z,24.97
2018-06-04T15:29:18.584Z,22.90
2018-06-04T15:31:46.771Z,25.43
2018-06-04T15:34:14.952Z,26.17
2018-06-04T15:36:43.107Z,25.33
2018-06-04T15:39:11.351Z,24.67
2018-06-04T15:41:39.612Z,26.27
2018-06-04T15:44:07.817Z,26.63
2018-06-04T15:46:36.088Z,26.87
2018-06-04T15:49:04.396Z,26.20
2018-06-04T15:51:32.585Z,26.90
2018-06-04T15:54:01.193Z,27.23
2018-06-04T15:56:29.371Z,27.57
2018-06-04T15:58:57.633Z,28.43
2018-06-04T16:01:25.555Z,27.57
2018-06-04T16:03:53.729Z,23.50
2018-06-04T16:06:21.888Z,24.77
2018-06-04T16:08:50.189Z,22.67
2018-06-04T16:11:18.869Z,22.17
2018-06-04T16:13:47.032Z,25.57
2018-06-04T16:16:15.329Z,20.30
2018-06-04T16:18:43.498Z,20.63
2018-06-04T16:21:11.795Z,20.77
2018-06-04T16:23:40.084Z,19.10
2018-06-04T16:26:08.289Z,21.80
2018-06-04T16:28:36.584Z,24.83
2018-06-04T16:31:04.768Z,24.73
2018-06-04T16:33:33.241Z,21.60
2018-06-04T16:36:01.469Z,21.47
2018-06-04T16:38:29.662Z,20.43
2018-06-04T16:40:57.833Z,22.80
2018-06-04T16:43:26.079Z,23.60
2018-06-04T16:45:54.419Z,24.50
2018-06-04T16:48:22.595Z,21.37
2018-06-04T16:50:50.778Z,24.47
2018-06-04T16:53:18.963Z,25.50
2018-06-04T16:55:47.172Z,25.83
2018-06-04T16:58:15.327Z,22.93
2018-06-04T17:00:43.695Z,24.87
2018-06-04T17:03:11.963Z,24.03
2018-06-04T17:05:40.209Z,22.37
2018-06-04T17:08:08.511Z,27.27
2018-06-04T17:10:36.680Z,26.10
2018-06-04T17:13:04.948Z,22.23
2018-06-04T17:15:33.832Z,21.43
2018-06-04T17:18:02.007Z,24.43
2018-06-04T17:20:30.265Z,25.90
2018-06-04T17:22:58.617Z,20.83
2018-06-04T17:25:26.781Z,23.07
2018-06-04T17:27:54.957Z,20.33
2018-06-04T17:30:23.923Z,23.00
2018-06-04T17:32:52.313Z,24.70
2018-06-04T17:35:20.835Z,21.43
2018-06-04T17:37:49.006Z,22.90
2018-06-04T17:40:17.176Z,21.83
2018-06-04T17:42:45.435Z,23.17
2018-06-04T17:45:13.704Z,25.00
2018-06-04T17:47:42.064Z,24.80
2018-06-04T17:50:10.080Z,24.13
2018-06-04T17:52:38.729Z,22.17
2018-06-04T17:55:06.659Z,21.23
2018-06-04T17:57:34.828Z,21.20
2018-06-04T18:00:03.093Z,22.63
2018-06-04T18:02:32.975Z,23.50
2018-06-04T18:05:01.293Z,22.97
2018-06-04T18:07:29.549Z,23.73
2018-06-04T18:09:57.808Z,22.27
2018-06-04T18:12:25.981Z,24.93
2018-06-04T18:14:54.245Z,25.13
2018-06-04T18:17:22.416Z,23.47
2018-06-04T18:19:50.612Z,25.80
2018-06-04T18:22:18.812Z,24.10
2018-06-04T18:24:47.128Z,25.80
2018-06-04T18:27:15.455Z,23.80
2018-06-04T18:29:43.579Z,24.47
2018-06-04T18:32:11.959Z,24.10
2018-06-04T18:34:40.225Z,22.70
2018-06-04T18:37:08.598Z,23.30
2018-06-04T18:39:36.820Z,20.23
2018-06-04T18:42:05.216Z,20.27
2018-06-04T18:44:33.413Z,19.60
2018-06-04T18:47:01.571Z,19.07
2018-06-04T18:49:29.967Z,18.40
2018-06-04T18:51:58.221Z,18.07
2018-06-04T18:54:26.471Z,16.67
2018-06-04T18:56:54.853Z,17.53
2018-06-04T18:59:23.145Z,18.90
2018-06-04T19:01:51.415Z,18.77
2018-06-04T19:04:19.784Z,13.67
2018-06-04T19:06:48.169Z,17.03
2018-06-04T19:09:16.392Z,16.67
2018-06-04T19:11:44.844Z,13.27
2018-06-04T19:14:13.087Z,14.23
2018-06-04T19:16:41.317Z,10.50
2018-06-04T19:19:09.504Z,14.77
2018-06-04T19:21:37.781Z,14.93
2018-06-04T19:24:05.948Z,11.00
2018-06-04T19:26:34.129Z,13.73
2018-06-04T19:29:02.334Z,12.47
2018-06-04T19:31:30.525Z,11.10
2018-06-04T19:33:58.960Z,13.63
2018-06-04T19:36:27.158Z,14.23
2018-06-04T19:38:55.347Z,11.93
2018-06-04T19:41:23.575Z,10.93
2018-06-04T19:43:52.207Z,10.90
2018-06-04T19:46:20.405Z,11.13
2018-06-04T19:48:48.600Z,8.83
2018-06-04T19:51:17.100Z,9.87
2018-06-04T19:53:45.289Z,8.00
2018-06-04T19:56:13.681Z,7.43
2018-06-04T19:58:42.272Z,9.20
2018-06-04T20:01:10.521Z,8.63
2018-06-04T20:03:39.300Z,7.10
2018-06-04T20:06:07.500Z,9.77
2018-06-04T20:08:35.835Z,8.97
2018-06-04T20:11:04.827Z,10.03
2018-06-04T20:13:33.007Z,10.90
2018-06-04T20:16:01.305Z,12.77
2018-06-04T20:18:29.770Z,8.65
2018-06-04T20:20:58.053Z,9.30
2018-06-04T20:23:26.588Z,9.57
2018-06-04T20:25:54.759Z,8.60
2018-06-04T20:28:23.005Z,9.57
2018-06-04T20:30:51.229Z,9.37
2018-06-04T20:33:19.434Z,9.73
2018-06-04T20:35:47.637Z,8.83
2018-06-04T20:38:15.892Z,7.07
2018-06-04T20:40:44.083Z,8.60
2018-06-04T20:43:12.245Z,7.40
2018-06-04T20:45:40.946Z,6.23
2018-06-04T20:48:09.143Z,5.63
2018-06-04T20:50:37.645Z,4.97
2018-06-04T20:53:06.139Z,6.70
2018-06-04T20:55:34.473Z,5.07
2018-06-04T20:58:02.636Z,6.93
2018-06-04T21:00:31.056Z,5.63
2018-06-04T21:02:59.471Z,5.07
2018-06-04T21:05:27.468Z,4.37
2018-06-04T21:07:55.635Z,5.57
2018-06-04T21:10:23.938Z,6.27
2018-06-04T21:12:52.125Z,4.20
2018-06-04T21:15:20.455Z,5.10
2018-06-04T21:17:48.749Z,4.23
2018-06-04T21:20:16.991Z,6.40
2018-06-04T21:22:45.641Z,8.50
2018-06-04T21:25:14.069Z,5.63
2018-06-04T21:27:42.498Z,5.20
2018-06-04T21:30:10.676Z,5.23
2018-06-04T21:32:38.854Z,4.77
2018-06-04T21:35:07.299Z,4.33
2018-06-04T21:37:35.584Z,4.60
2018-06-04T21:40:03.788Z,5.53
2018-06-04T21:42:32.000Z,5.00
2018-06-04T21:45:00.244Z,5.70
2018-06-04T21:47:28.554Z,5.13
2018-06-04T21:49:56.739Z,4.33
2018-06-04T21:52:24.909Z,3.80
2018-06-04T21:54:53.152Z,4.40
2018-06-04T21:57:21.329Z,7.10
2018-06-04T21:59:49.671Z,5.80
2018-06-04T22:02:17.849Z,4.63
2018-06-04T22:04:46.298Z,5.97
2018-06-04T22:07:14.488Z,4.40
2018-06-04T22:09:42.660Z,4.10
2018-06-04T22:12:10.838Z,4.67
2018-06-04T22:14:39.124Z,4.27
2018-06-04T22:17:07.413Z,4.90
2018-06-04T22:19:35.691Z,4.10
2018-06-04T22:22:03.906Z,4.30
2018-06-04T22:24:32.107Z,4.93
2018-06-04T22:27:00.280Z,4.87
2018-06-04T22:29:28.500Z,6.47
2018-06-04T22:31:56.683Z,5.90
2018-06-04T22:34:25.100Z,5.37
2018-06-04T22:36:53.276Z,5.37
2018-06-04T22:39:21.528Z,4.60
2018-06-04T22:41:49.692Z,8.50
2018-06-04T22:44:17.897Z,10.93
2018-06-04T22:46:46.060Z,7.83
2018-06-04T22:49:14.537Z,8.20
2018-06-04T22:51:42.916Z,7.90
2018-06-04T22:54:11.384Z,6.37
2018-06-04T22:56:39.689Z,5.53
2018-06-04T22:59:07.870Z,8.00
2018-06-04T23:01:36.041Z,8.50
2018-06-04T23:04:04.217Z,7.30
2018-06-04T23:06:32.392Z,6.57
2018-06-04T23:09:00.568Z,9.30
2018-06-04T23:11:28.736Z,8.77
2018-06-04T23:13:57.040Z,14.20
2018-06-04T23:16:25.348Z,13.87
2018-06-04T23:18:53.644Z,17.13
2018-06-04T23:21:21.841Z,12.67
2018-06-04T23:23:50.033Z,13.27
2018-06-04T23:26:18.204Z,11.20
2018-06-04T23:28:46.450Z,13.97
2018-06-04T23:31:15.106Z,11.03
2018-06-04T23:33:43.285Z,15.00
2018-06-04T23:36:11.544Z,13.80
2018-06-04T23:38:39.797Z,14.37
2018-06-04T23:41:08.196Z,13.20
2018-06-04T23:43:36.413Z,13.13
2018-06-04T23:46:04.594Z,12.03
2018-06-04T23:48:32.788Z,10.73
2018-06-04T23:51:00.970Z,11.40
2018-06-04T23:53:29.256Z,14.13
2018-06-04T23:55:57.453Z,13.00
2018-06-04T23:58:26.003Z,13.43
